createdAt,value
2023-01-04T00:01:03.906Z,98.50
2023-01-04T00:03:32.238Z,98.50
2023-01-04T00:06:00.614Z,98.50
2023-01-04T00:08:27.952Z,98.50
2023-01-04T00:11:20.525Z,98.50
2023-01-04T00:13:49.158Z,98.50
2023-01-04T00:16:21.258Z,98.50
2023-01-04T00:18:48.934Z,98.50
2023-01-04T00:21:16.569Z,98.50
2023-01-04T00:23:45.834Z,98.50
2023-01-04T00:26:15.061Z,98.50
2023-01-04T00:28:43.943Z,98.50
2023-01-04T00:31:16.344Z,98.50
2023-01-04T00:33:43.007Z,98.50
2023-01-04T00:36:13.317Z,98.50
2023-01-04T00:38:41.033Z,98.50
2023-01-04T00:41:23.111Z,98.50
2023-01-04T00:43:55.887Z,98.50
2023-01-04T00:46:22.551Z,98.50
2023-01-04T00:48:49.273Z,98.50
2023-01-04T00:51:15.954Z,98.50
2023-01-04T00:53:42.623Z,98.50
2023-01-04T00:56:09.313Z,98.50
2023-01-04T00:58:35.981Z,98.50
2023-01-04T01:01:06.823Z,98.50
2023-01-04T01:03:38.466Z,98.50
2023-01-04T01:06:07.876Z,98.50
2023-01-04T01:08:34.831Z,98.50
2023-01-04T01:11:10.032Z,98.50
2023-01-04T01:13:38.432Z,98.50
2023-01-04T01:16:10.947Z,98.50
2023-01-04T01:18:39.434Z,98.50
2023-01-04T01:21:07.892Z,98.50
2023-01-04T01:23:34.928Z,98.50
2023-01-04T01:26:07.336Z,98.50
2023-01-04T01:28:35.835Z,98.50
2023-01-04T01:31:17.849Z,98.50
2023-01-04T01:33:46.819Z,98.50
2023-01-04T01:36:15.929Z,98.50
2023-01-04T01:38:43.481Z,98.50
2023-01-04T01:41:23.862Z,98.50
2023-01-04T01:43:50.499Z,98.50
2023-01-04T01:46:24.961Z,98.50
2023-01-04T01:48:56.427Z,98.50
2023-01-04T01:51:23.472Z,98.50
2023-01-04T01:53:58.859Z,98.50
2023-01-04T01:56:27.972Z,98.50
2023-01-04T01:58:58.464Z,98.50
2023-01-04T02:01:25.874Z,98.50
2023-01-04T02:03:52.813Z,98.50
2023-01-04T02:06:28.479Z,98.50
2023-01-04T02:08:55.966Z,98.50
2023-01-04T02:11:22.613Z,98.50
2023-01-04T02:14:08.448Z,98.50
2023-01-04T02:16:38.204Z,98.50
2023-01-04T02:19:16.749Z,98.50
2023-01-04T02:22:04.828Z,98.50
2023-01-04T02:24:51.774Z,98.50
2023-01-04T02:27:47.453Z,98.50
2023-01-04T02:30:38.198Z,98.50
2023-01-04T02:33:39.372Z,98.50
2023-01-04T02:36:22.449Z,98.50
2023-01-04T02:39:13.331Z,98.50
2023-01-04T02:42:21.703Z,98.50
2023-01-04T02:44:59.349Z,98.50
2023-01-04T02:47:53.709Z,98.50
2023-01-04T02:50:33.762Z,98.50
2023-01-04T02:53:05.622Z,98.50
2023-01-04T02:55:41.098Z,98.50
2023-01-04T02:58:50.954Z,98.50
2023-01-04T03:01:58.296Z,98.50
2023-01-04T03:05:02.238Z,98.50
2023-01-04T03:07:45.236Z,98.50
2023-01-04T03:10:23.778Z,98.50
2023-01-04T03:13:02.460Z,98.50
2023-01-04T03:15:34.081Z,98.50
2023-01-04T03:18:20.450Z,98.50
2023-01-04T03:20:50.040Z,98.50
2023-01-04T03:23:40.296Z,98.50
2023-01-04T03:26:32.941Z,98.50
2023-01-04T03:29:26.188Z,98.50
2023-01-04T03:32:36.410Z,98.50
2023-01-04T03:35:22.210Z,98.50
2023-01-04T03:38:48.994Z,98.50
2023-01-04T03:41:55.759Z,98.50
2023-01-04T03:44:52.889Z,98.50
2023-01-04T03:47:50.825Z,98.50
2023-01-04T03:50:28.415Z,98.50
2023-01-04T03:52:56.647Z,98.50
2023-01-04T03:55:25.523Z,98.50
2023-01-04T03:57:53.203Z,98.50
2023-01-04T04:00:20.066Z,98.50
2023-01-04T04:02:48.229Z,98.50
2023-01-04T04:05:41.841Z,98.50
2023-01-04T04:08:27.210Z,98.50
2023-01-04T04:10:57.711Z,98.50
2023-01-04T04:13:24.802Z,98.50
2023-01-04T04:15:53.425Z,98.50
2023-01-04T04:18:20.120Z,98.50
2023-01-04T04:20:46.854Z,98.50
2023-01-04T04:23:13.481Z,98.50
2023-01-04T04:25:40.142Z,98.50
2023-01-04T04:28:06.829Z,98.50
2023-01-04T04:30:33.523Z,98.50
2023-01-04T04:33:00.177Z,98.50
2023-01-04T04:35:26.919Z,98.50
2023-01-04T04:37:53.600Z,98.50
2023-01-04T04:40:39.011Z,98.50
2023-01-04T04:43:08.621Z,98.50
2023-01-04T04:45:35.339Z,98.50
2023-01-04T04:48:02.077Z,98.50
2023-01-04T04:50:28.753Z,98.50
2023-01-04T04:52:56.444Z,98.50
2023-01-04T04:55:23.627Z,98.50
2023-01-04T04:57:50.242Z,98.50
2023-01-04T05:00:17.315Z,98.50
2023-01-04T05:02:44.031Z,98.50
2023-01-04T05:05:10.839Z,98.50
2023-01-04T05:07:37.516Z,98.50
2023-01-04T05:10:04.597Z,98.50
2023-01-04T05:12:54.410Z,98.50
2023-01-04T05:15:24.440Z,98.50
2023-01-04T05:17:51.114Z,98.50
2023-01-04T05:20:17.848Z,98.50
2023-01-04T05:22:44.567Z,98.50
2023-01-04T05:25:12.157Z,98.50
2023-01-04T05:27:38.916Z,98.50
2023-01-04T05:30:24.878Z,98.50
2023-01-04T05:32:51.691Z,98.50
2023-01-04T05:35:18.375Z,98.50
2023-01-04T05:37:45.016Z,98.50
2023-01-04T05:40:11.898Z,98.50
2023-01-04T05:42:38.555Z,98.50
2023-01-04T05:45:05.846Z,98.50
2023-01-04T05:47:32.586Z,98.50
2023-01-04T05:49:59.534Z,98.50
2023-01-04T05:52:26.654Z,98.50
2023-01-04T05:54:53.320Z,98.50
2023-01-04T05:57:20.121Z,98.50
2023-01-04T05:59:46.867Z,98.50
2023-01-04T06:02:22.318Z,98.50
2023-01-04T06:04:54.705Z,98.50
2023-01-04T06:07:25.050Z,98.50
2023-01-04T06:09:51.776Z,98.50
2023-01-04T06:12:18.575Z,98.50
2023-01-04T06:14:45.273Z,98.50
2023-01-04T06:17:12.114Z,98.50
2023-01-04T06:19:38.865Z,98.50
2023-01-04T06:22:05.975Z,98.50
2023-01-04T06:24:34.089Z,98.50
2023-01-04T06:27:01.995Z,98.50
2023-01-04T06:29:28.698Z,98.50
2023-01-04T06:31:55.626Z,98.50
2023-01-04T06:34:28.564Z,98.50
2023-01-04T06:36:57.809Z,98.50
2023-01-04T06:39:24.525Z,98.50
2023-01-04T06:41:51.179Z,98.50
2023-01-04T06:44:17.870Z,98.50
2023-01-04T06:46:44.993Z,98.50
2023-01-04T06:49:11.889Z,98.50
2023-01-04T06:51:38.615Z,98.50
2023-01-04T06:54:05.384Z,98.50
2023-01-04T06:56:32.313Z,98.50
2023-01-04T06:58:59.355Z,98.50
2023-01-04T07:01:26.354Z,98.50
2023-01-04T07:03:53.090Z,98.50
2023-01-04T07:06:19.847Z,98.50
2023-01-04T07:08:47.401Z,98.50
2023-01-04T07:11:14.433Z,98.50
2023-01-04T07:13:41.535Z,98.50
2023-01-04T07:16:08.296Z,98.50
2023-01-04T07:18:35.028Z,98.50
2023-01-04T07:21:02.072Z,98.50
2023-01-04T07:23:28.757Z,98.50
2023-01-04T07:25:55.424Z,98.50
2023-01-04T07:28:40.632Z,98.50
2023-01-04T07:31:08.654Z,98.50
2023-01-04T07:33:35.546Z,98.50
2023-01-04T07:36:06.696Z,98.50
2023-01-04T07:38:34.960Z,98.50
2023-01-04T07:41:01.709Z,98.50
2023-01-04T07:43:28.874Z,98.50
2023-01-04T07:45:56.080Z,98.50
2023-01-04T07:48:22.887Z,98.50
2023-01-04T07:50:50.288Z,98.50
2023-01-04T07:53:17.136Z,98.50
2023-01-04T07:55:43.950Z,98.50
2023-01-04T07:58:10.629Z,98.50
2023-01-04T08:00:37.505Z,98.50
2023-01-04T08:03:04.563Z,98.50
2023-01-04T08:05:34.986Z,98.50
2023-01-04T08:08:01.870Z,98.50
2023-01-04T08:10:28.911Z,98.50
2023-01-04T08:12:59.382Z,98.50
2023-01-04T08:15:29.082Z,98.50
2023-01-04T08:17:56.830Z,98.50
2023-01-04T08:20:23.548Z,98.50
2023-01-04T08:22:50.227Z,98.50
2023-01-04T08:25:16.943Z,98.50
2023-01-04T08:27:43.679Z,98.50
2023-01-04T08:30:10.667Z,98.50
2023-01-04T08:32:37.313Z,98.50
2023-01-04T08:35:04.426Z,98.50
2023-01-04T08:37:31.989Z,98.50
2023-01-04T08:39:58.647Z,98.50
2023-01-04T08:42:31.213Z,98.50
2023-01-04T08:45:01.095Z,98.50
2023-01-04T08:47:29.508Z,98.50
2023-01-04T08:49:56.972Z,98.50
2023-01-04T08:52:23.666Z,98.50
2023-01-04T08:54:50.414Z,98.50
2023-01-04T08:57:18.141Z,98.50
2023-01-04T08:59:45.183Z,98.50
2023-01-04T09:02:24.280Z,98.50
2023-01-04T09:04:51.771Z,98.50
2023-01-04T09:07:18.932Z,98.50
2023-01-04T09:09:45.596Z,98.50
2023-01-04T09:12:12.283Z,98.50
2023-01-04T09:14:39.302Z,98.50
2023-01-04T09:17:06.265Z,98.50
2023-01-04T09:19:33.043Z,98.50
2023-01-04T09:21:59.948Z,98.50
2023-01-04T09:24:26.758Z,98.50
2023-01-04T09:26:53.563Z,98.50
2023-01-04T09:29:20.408Z,98.50
2023-01-04T09:31:47.380Z,98.50
2023-01-04T09:34:16.590Z,98.50
2023-01-04T09:36:47.908Z,98.50
2023-01-04T09:39:22.447Z,98.50
2023-01-04T09:41:58.944Z,98.50
2023-01-04T09:47:51.356Z,98.50
2023-01-04T09:50:50.683Z,98.50
2023-01-04T09:54:02.880Z,98.50
2023-01-04T09:56:33.958Z,98.50
2023-01-04T09:59:03.285Z,98.50
2023-01-04T10:01:43.375Z,98.50
2023-01-04T10:04:29.236Z,98.50
2023-01-04T10:07:04.487Z,98.50
2023-01-04T10:09:32.120Z,98.50
2023-01-04T10:12:23.083Z,98.50
2023-01-04T10:15:05.399Z,98.50
2023-01-04T10:24:09.639Z,98.50
2023-01-04T10:26:46.489Z,98.50
2023-01-04T10:29:55.597Z,98.50
2023-01-04T10:32:42.412Z,98.50
2023-01-04T10:35:27.230Z,98.50
2023-01-04T10:38:03.478Z,98.50
2023-01-04T10:40:37.767Z,98.50
2023-01-04T10:44:12.279Z,98.50
2023-01-04T10:46:41.404Z,98.50
2023-01-04T10:49:11.085Z,98.50
2023-01-04T10:51:54.056Z,98.50
2023-01-04T10:54:39.258Z,98.50
2023-01-04T10:57:07.137Z,98.50
2023-01-04T11:00:09.644Z,98.50
2023-01-04T11:02:50.662Z,98.50
2023-01-04T11:05:24.111Z,98.50
2023-01-04T11:07:57.887Z,98.50
2023-01-04T11:10:31.597Z,98.50
2023-01-04T11:12:58.352Z,98.50
2023-01-04T11:15:25.048Z,98.50
2023-01-04T11:17:52.660Z,98.50
2023-01-04T11:20:22.735Z,98.50
2023-01-04T11:22:59.895Z,98.50
2023-01-04T11:25:36.424Z,98.50
2023-01-04T11:28:15.841Z,98.50
2023-01-04T11:30:55.360Z,98.50
2023-01-04T11:33:23.762Z,98.50
2023-01-04T11:35:59.231Z,98.50
2023-01-04T11:38:29.363Z,98.50
2023-01-04T11:41:01.993Z,98.50
2023-01-04T11:43:33.852Z,98.50
2023-01-04T11:46:05.223Z,98.50
2023-01-04T11:48:44.679Z,98.50
2023-01-04T11:51:20.619Z,98.50
2023-01-04T11:53:58.549Z,98.50
2023-01-04T11:56:26.834Z,98.50
2023-01-04T11:59:08.795Z,98.50
2023-01-04T12:01:38.656Z,98.50
2023-01-04T12:04:27.594Z,98.50
2023-01-04T12:06:58.257Z,98.50
2023-01-04T12:09:25.035Z,98.50
2023-01-04T12:11:55.979Z,98.50
2023-01-04T12:14:27.558Z,98.50
2023-01-04T12:17:17.354Z,98.50
2023-01-04T12:19:46.349Z,98.50
2023-01-04T12:22:35.719Z,98.50
2023-01-04T12:25:19.728Z,98.50
2023-01-04T12:27:51.508Z,98.50
2023-01-04T12:30:47.178Z,98.50
2023-01-04T12:33:32.076Z,98.50
2023-01-04T12:36:02.323Z,98.50
2023-01-04T12:39:02.858Z,98.50
2023-01-04T12:41:35.432Z,98.50
2023-01-04T12:44:04.046Z,98.50
2023-01-04T12:46:49.274Z,98.50
2023-01-04T12:49:28.007Z,98.50
2023-01-04T12:52:30.564Z,98.50
2023-01-04T12:55:02.864Z,98.50
2023-01-04T12:57:38.037Z,98.50
2023-01-04T13:00:12.019Z,98.50
2023-01-04T13:02:52.696Z,98.50
2023-01-04T13:08:11.601Z,98.50
2023-01-04T13:10:49.808Z,98.50
2023-01-04T13:13:59.365Z,98.50
2023-01-04T13:16:34.739Z,98.50
2023-01-04T13:19:15.094Z,98.50
2023-01-04T13:21:51.120Z,98.50
2023-01-04T13:24:32.803Z,98.50
2023-01-04T13:27:16.480Z,98.50
2023-01-04T13:29:43.404Z,98.50
2023-01-04T13:32:20.633Z,98.50
2023-01-04T13:35:00.838Z,98.50
2023-01-04T13:37:42.207Z,98.50
2023-01-04T13:40:25.571Z,98.50
2023-01-04T13:43:15.333Z,98.50
2023-01-04T13:46:13.152Z,98.50
2023-01-04T13:48:42.520Z,98.50
2023-01-04T13:51:21.244Z,98.50
2023-01-04T13:53:57.470Z,97.90
2023-01-04T13:56:26.709Z,97.70
2023-01-04T13:58:54.076Z,98.40
2023-01-04T14:01:28.657Z,98.50
2023-01-04T14:04:02.338Z,96.50
2023-01-04T14:06:45.296Z,96.20
2023-01-04T14:09:14.679Z,95.40
2023-01-04T14:12:06.223Z,95.20
2023-01-04T14:14:55.862Z,93.80
2023-01-04T14:17:31.735Z,93.00
2023-01-04T14:19:59.807Z,93.80
2023-01-04T14:22:32.705Z,94.60
2023-01-04T14:25:10.109Z,95.50
2023-01-04T14:27:42.853Z,95.70
2023-01-04T14:30:18.315Z,95.90
2023-01-04T14:33:00.266Z,95.30
2023-01-04T14:35:28.729Z,95.50
2023-01-04T14:38:02.382Z,94.00
2023-01-04T14:40:33.478Z,94.70
2023-01-04T14:43:00.161Z,94.00
2023-01-04T14:45:26.856Z,92.00
2023-01-04T14:47:53.692Z,92.30
2023-01-04T14:50:20.430Z,91.60
2023-01-04T14:52:54.196Z,91.60
2023-01-04T14:55:23.399Z,91.60
2023-01-04T14:57:50.225Z,93.00
2023-01-04T15:00:19.943Z,94.30
2023-01-04T15:02:50.758Z,94.90
2023-01-04T15:05:22.648Z,95.10
2023-01-04T15:07:49.355Z,94.30
2023-01-04T15:10:22.702Z,94.10
2023-01-04T15:12:49.728Z,94.00
2023-01-04T15:15:16.491Z,92.60
2023-01-04T15:17:43.184Z,92.50
2023-01-04T15:20:10.230Z,93.20
2023-01-04T15:22:37.684Z,93.00
2023-01-04T15:25:04.760Z,92.00
2023-01-04T15:27:33.548Z,92.00
2023-01-04T15:30:04.465Z,92.10
2023-01-04T15:32:35.263Z,92.40
2023-01-04T15:35:02.362Z,92.80
2023-01-04T15:37:29.008Z,93.40
2023-01-04T15:40:01.934Z,93.70
2023-01-04T15:43:08.049Z,94.20
2023-01-04T15:45:39.517Z,94.00
2023-01-04T15:48:07.936Z,94.80
2023-01-04T15:50:36.682Z,94.20
2023-01-04T15:53:04.296Z,94.90
2023-01-04T15:55:36.136Z,95.60
2023-01-04T15:58:04.157Z,95.70
2023-01-04T16:00:30.887Z,96.00
2023-01-04T16:02:57.637Z,95.60
2023-01-04T16:05:25.359Z,95.50
2023-01-04T16:07:52.123Z,95.50
2023-01-04T16:10:19.089Z,95.70
2023-01-04T16:12:51.406Z,96.80
2023-01-04T16:15:23.218Z,97.00
2023-01-04T16:17:49.980Z,97.10
2023-01-04T16:20:18.694Z,97.30
2023-01-04T16:22:45.620Z,97.80
2023-01-04T16:25:13.167Z,97.90
2023-01-04T16:27:40.481Z,98.50
2023-01-04T16:30:13.969Z,98.50
2023-01-04T16:32:42.569Z,98.50
2023-01-04T16:35:10.611Z,98.50
2023-01-04T16:37:37.808Z,98.50
2023-01-04T16:40:06.831Z,98.50
2023-01-04T16:42:34.910Z,98.50
2023-01-04T16:45:01.735Z,98.50
2023-01-04T16:47:28.436Z,98.50
2023-01-04T16:49:55.287Z,98.50
2023-01-04T16:52:22.346Z,98.50
2023-01-04T16:54:49.188Z,98.50
2023-01-04T16:57:15.869Z,98.50
2023-01-04T16:59:42.642Z,98.50
2023-01-04T17:02:11.161Z,98.50
2023-01-04T17:04:38.163Z,98.50
2023-01-04T17:07:04.914Z,98.50
2023-01-04T17:09:31.679Z,98.50
2023-01-04T17:14:51.969Z,98.50
2023-01-04T17:17:27.888Z,98.50
2023-01-04T17:19:54.674Z,98.50
2023-01-04T17:22:21.346Z,98.50
2023-01-04T17:24:47.996Z,98.50
2023-01-04T17:27:14.664Z,98.50
2023-01-04T17:29:41.635Z,98.50
2023-01-04T17:32:08.401Z,98.50
2023-01-04T17:34:35.180Z,98.50
2023-01-04T17:37:01.829Z,98.50
2023-01-04T17:39:31.676Z,98.50
2023-01-04T17:41:58.690Z,98.50
2023-01-04T17:44:25.336Z,98.50
2023-01-04T17:46:52.654Z,98.50
2023-01-04T17:49:25.498Z,98.50
2023-01-04T17:51:55.335Z,98.50
2023-01-04T17:54:23.040Z,98.50
2023-01-04T17:56:49.810Z,98.50
2023-01-04T17:59:16.564Z,98.50
2023-01-04T18:01:43.277Z,98.50
2023-01-04T18:04:10.037Z,98.50
2023-01-04T18:06:37.193Z,98.50
2023-01-04T18:09:09.298Z,98.50
2023-01-04T18:11:37.295Z,98.50
2023-01-04T18:14:07.927Z,98.50
2023-01-04T18:16:56.236Z,98.50
2023-01-04T18:19:29.395Z,98.50
2023-01-04T18:21:56.731Z,98.50
2023-01-04T18:24:39.591Z,98.50
2023-01-04T18:27:26.405Z,98.50
2023-01-04T18:29:54.497Z,98.50
2023-01-04T18:32:22.406Z,98.50
2023-01-04T18:34:49.200Z,98.50
2023-01-04T18:37:18.186Z,98.50
2023-01-04T18:39:44.945Z,98.50
2023-01-04T18:42:11.689Z,98.50
2023-01-04T18:44:45.633Z,98.50
2023-01-04T18:47:15.033Z,98.50
2023-01-04T18:49:41.835Z,98.50
2023-01-04T18:52:08.521Z,98.50
2023-01-04T18:54:35.180Z,98.50
2023-01-04T18:57:01.944Z,98.50
2023-01-04T18:59:29.458Z,98.50
2023-01-04T19:02:03.502Z,98.50
2023-01-04T19:04:33.271Z,98.50
2023-01-04T19:07:00.731Z,98.50
2023-01-04T19:09:27.504Z,98.50
2023-01-04T19:11:54.208Z,98.50
2023-01-04T19:14:20.946Z,98.50
2023-01-04T19:16:47.636Z,98.50
2023-01-04T19:19:14.445Z,98.50
2023-01-04T19:21:41.233Z,98.50
2023-01-04T19:24:07.996Z,98.50
2023-01-04T19:26:34.657Z,98.50
2023-01-04T19:29:01.342Z,98.50
2023-01-04T19:31:28.104Z,98.50
2023-01-04T19:33:54.803Z,98.50
2023-01-04T19:36:21.513Z,98.50
2023-01-04T19:38:48.220Z,98.50
2023-01-04T19:41:20.896Z,98.50
2023-01-04T19:43:47.872Z,98.50
2023-01-04T19:46:16.047Z,98.50
2023-01-04T19:48:43.495Z,98.50
2023-01-04T19:51:16.920Z,98.50
2023-01-04T19:53:44.481Z,98.50
2023-01-04T19:56:12.588Z,98.50
2023-01-04T19:58:39.815Z,98.50
2023-01-04T20:01:07.092Z,98.50
2023-01-04T20:03:33.962Z,98.50
2023-01-04T20:06:03.308Z,98.50
2023-01-04T20:08:30.203Z,98.50
2023-01-04T20:10:58.943Z,98.50
2023-01-04T20:13:26.952Z,98.50
2023-01-04T20:15:54.030Z,98.50
2023-01-04T20:18:21.516Z,98.50
2023-01-04T20:20:48.294Z,98.50
2023-01-04T20:23:15.760Z,98.50
2023-01-04T20:25:45.166Z,98.50
2023-01-04T20:28:12.261Z,98.50
2023-01-04T20:30:39.134Z,98.50
2023-01-04T20:33:06.892Z,98.50
2023-01-04T20:35:37.160Z,98.50
2023-01-04T20:38:03.836Z,98.50
2023-01-04T20:40:30.491Z,98.50
2023-01-04T20:43:16.214Z,98.50
2023-01-04T20:45:44.372Z,98.50
2023-01-04T20:48:11.495Z,98.50
2023-01-04T20:50:38.430Z,98.50
2023-01-04T20:53:05.783Z,98.50
2023-01-04T20:55:37.636Z,98.50
2023-01-04T20:58:05.437Z,98.50
2023-01-04T21:00:32.181Z,98.50
2023-01-04T21:02:59.081Z,98.50
2023-01-04T21:05:25.857Z,98.50
2023-01-04T21:07:52.732Z,98.50
2023-01-04T21:10:19.435Z,98.50
2023-01-04T21:12:46.086Z,98.50
2023-01-04T21:15:12.843Z,98.50
2023-01-04T21:17:40.208Z,98.50
2023-01-04T21:20:07.393Z,98.50
2023-01-04T21:22:34.460Z,98.50
2023-01-04T21:25:01.127Z,98.50
2023-01-04T21:27:27.797Z,98.50
2023-01-04T21:29:54.465Z,98.50
2023-01-04T21:32:21.165Z,98.50
2023-01-04T21:34:47.864Z,98.50
2023-01-04T21:37:14.667Z,98.50
2023-01-04T21:39:41.396Z,98.50
2023-01-04T21:42:08.065Z,98.50
2023-01-04T21:44:34.841Z,98.50
2023-01-04T21:47:01.570Z,98.50
2023-01-04T21:49:28.251Z,98.50
2023-01-04T21:51:55.024Z,98.50
2023-01-04T21:54:21.706Z,98.50
2023-01-04T21:56:48.447Z,98.50
2023-01-04T21:59:15.251Z,98.50
2023-01-04T22:01:42.763Z,98.50
2023-01-04T22:04:09.529Z,98.50
2023-01-04T22:06:38.671Z,98.50
2023-01-04T22:09:07.137Z,98.50
2023-01-04T22:11:33.907Z,98.50
2023-01-04T22:14:00.782Z,98.50
2023-01-04T22:16:29.338Z,98.50
2023-01-04T22:18:56.070Z,98.50
2023-01-04T22:21:23.960Z,98.50
2023-01-04T22:23:51.664Z,98.50
2023-01-04T22:26:18.827Z,98.50
2023-01-04T22:28:45.642Z,98.50
2023-01-04T22:31:16.349Z,98.50
2023-01-04T22:33:43.615Z,98.50
2023-01-04T22:36:22.260Z,98.50
2023-01-04T22:38:52.306Z,98.50
2023-01-04T22:41:24.203Z,98.50
2023-01-04T22:44:05.815Z,98.50
2023-01-04T22:46:35.449Z,98.50
2023-01-04T22:49:03.008Z,98.50
2023-01-04T22:51:30.692Z,98.50
2023-01-04T22:54:00.091Z,98.50
2023-01-04T22:56:27.847Z,98.50
2023-01-04T22:58:56.077Z,98.50
2023-01-04T23:01:26.210Z,98.50
2023-01-04T23:03:54.483Z,98.50
2023-01-04T23:06:21.803Z,98.50
2023-01-04T23:08:53.647Z,98.50
2023-01-04T23:11:20.559Z,98.50
2023-01-04T23:13:47.501Z,98.50
2023-01-04T23:16:16.430Z,98.50
2023-01-04T23:18:43.869Z,98.50
2023-01-04T23:21:11.656Z,98.50
2023-01-04T23:23:39.097Z,98.50
2023-01-04T23:26:07.531Z,98.50
2023-01-04T23:28:38.054Z,98.50
2023-01-04T23:31:07.873Z,98.50
2023-01-04T23:33:39.109Z,98.50
2023-01-04T23:36:21.654Z,98.50
2023-01-04T23:38:56.692Z,98.50
2023-01-04T23:41:43.674Z,98.50
2023-01-04T23:44:25.521Z,98.50
2023-01-04T23:46:56.434Z,98.50
2023-01-04T23:49:26.503Z,98.50
2023-01-04T23:51:53.838Z,98.50
2023-01-04T23:54:21.165Z,98.50
2023-01-04T23:56:48.683Z,98.50
2023-01-04T23:59:16.104Z,98.50
